createdAt,value
2016-10-29T00:00:07.932Z,85.73
2016-10-29T00:00:29.676Z,85.77
2016-10-29T00:01:00.944Z,85.72
2016-10-29T00:01:53.934Z,85.71
2016-10-29T00:02:16.660Z,85.74
2016-10-29T00:02:38.384Z,85.77
2016-10-29T00:03:00.165Z,85.82
2016-10-29T00:03:21.923Z,85.85
2016-10-29T00:03:43.657Z,85.84
2016-10-29T00:04:06.415Z,85.93
2016-10-29T00:04:28.151Z,85.93
2016-10-29T00:04:59.419Z,85.92
2016-10-29T00:05:21.187Z,85.75
2016-10-29T00:05:42.917Z,85.78
2016-10-29T00:06:31.409Z,85.85
2016-10-29T00:06:54.137Z,85.81
2016-10-29T00:07:47.111Z,86.13
2016-10-29T00:08:09.837Z,86.08
2016-10-29T00:08:31.575Z,85.94
2016-10-29T00:08:58.062Z,85.84
2016-10-29T00:09:19.782Z,85.80
2016-10-29T00:09:42.598Z,85.84
2016-10-29T00:10:04.329Z,85.82
2016-10-29T00:10:27.056Z,85.78
2016-10-29T00:10:48.829Z,85.77
2016-10-29T00:11:11.573Z,85.79
2016-10-29T00:11:33.448Z,85.92
2016-10-29T00:11:56.167Z,85.96
2016-10-29T00:12:18.884Z,85.91
2016-10-29T00:12:42.637Z,85.96
2016-10-29T00:13:04.352Z,85.94
2016-10-29T00:13:26.080Z,85.96
2016-10-29T00:13:47.799Z,86.10
2016-10-29T00:14:09.539Z,86.03
2016-10-29T00:14:31.260Z,86.14
2016-10-29T00:15:00.306Z,86.14
2016-10-29T00:15:29.352Z,86.13
2016-10-29T00:15:52.074Z,86.04
2016-10-29T00:16:13.801Z,86.03
2016-10-29T00:16:35.520Z,86.05
2016-10-29T00:16:59.247Z,86.07
2016-10-29T00:17:21.985Z,86.00
2016-10-29T00:17:43.707Z,86.09
2016-10-29T00:18:06.430Z,86.22
2016-10-29T00:18:28.151Z,86.25
2016-10-29T00:18:49.872Z,86.26
2016-10-29T00:19:11.615Z,86.26
2016-10-29T00:19:33.384Z,86.26
2016-10-29T00:19:59.875Z,86.26
2016-10-29T00:20:21.591Z,86.23
2016-10-29T00:20:43.306Z,86.27
2016-10-29T00:21:05.029Z,86.21
2016-10-29T00:21:36.293Z,86.32
2016-10-29T00:21:58.009Z,86.38
2016-10-29T00:22:20.740Z,86.38
2016-10-29T00:22:42.472Z,86.40
2016-10-29T00:23:04.213Z,86.33
2016-10-29T00:23:31.706Z,86.34
2016-10-29T00:23:58.191Z,86.32
2016-10-29T00:24:19.907Z,86.29
2016-10-29T00:24:41.645Z,86.28
2016-10-29T00:25:04.377Z,86.24
2016-10-29T00:25:26.096Z,86.17
2016-10-29T00:25:47.819Z,86.14
2016-10-29T00:26:09.538Z,86.13
2016-10-29T00:26:31.254Z,86.20
2016-10-29T00:27:19.499Z,86.18
2016-10-29T00:27:42.223Z,86.24
2016-10-29T00:28:03.943Z,86.19
2016-10-29T00:28:27.671Z,86.10
2016-10-29T00:28:49.387Z,86.01
2016-10-29T00:29:11.105Z,86.01
2016-10-29T00:30:00.337Z,86.10
2016-10-29T00:30:22.060Z,86.18
2016-10-29T00:30:43.779Z,86.24
2016-10-29T00:31:05.500Z,86.17
2016-10-29T00:31:34.913Z,86.13
2016-10-29T00:31:57.637Z,86.14
2016-10-29T00:32:24.133Z,86.28
2016-10-29T00:32:52.619Z,86.20
2016-10-29T00:33:19.123Z,86.18
2016-10-29T00:34:13.097Z,86.17
2016-10-29T00:34:40.685Z,86.28
2016-10-29T00:35:03.419Z,86.17
2016-10-29T00:35:29.914Z,86.20
2016-10-29T00:35:52.624Z,86.23
2016-10-29T00:36:15.353Z,86.18
2016-10-29T00:36:37.080Z,86.20
2016-10-29T00:37:34.830Z,86.24
2016-10-29T00:38:01.333Z,86.27
2016-10-29T00:38:23.052Z,86.34
2016-10-29T00:38:49.557Z,86.21
2016-10-29T00:39:13.275Z,86.22
2016-10-29T00:40:03.489Z,86.24
2016-10-29T00:40:27.218Z,86.23
2016-10-29T00:40:48.923Z,86.29
2016-10-29T00:41:11.650Z,86.30
2016-10-29T00:41:33.367Z,86.50
2016-10-29T00:41:55.102Z,86.49
2016-10-29T00:42:20.736Z,86.42
2016-10-29T00:42:42.484Z,86.37
2016-10-29T00:43:06.217Z,86.36
2016-10-29T00:43:54.423Z,86.44
2016-10-29T00:44:17.138Z,86.55
2016-10-29T00:44:38.873Z,86.61
2016-10-29T00:45:05.374Z,86.54
2016-10-29T00:45:27.095Z,86.48
2016-10-29T00:45:53.579Z,86.37
2016-10-29T00:46:15.302Z,86.33
2016-10-29T00:46:37.042Z,86.28
2016-10-29T00:47:00.758Z,86.22
2016-10-29T00:47:22.488Z,86.15
2016-10-29T00:47:44.218Z,86.11
2016-10-29T00:48:05.937Z,86.09
2016-10-29T00:48:32.423Z,86.14
2016-10-29T00:48:54.149Z,86.23
2016-10-29T00:49:42.388Z,86.31
2016-10-29T00:50:13.644Z,86.29
2016-10-29T00:50:37.928Z,86.29
2016-10-29T00:51:38.586Z,86.53
2016-10-29T00:52:00.302Z,86.50
2016-10-29T00:52:24.019Z,86.44
2016-10-29T00:52:45.755Z,86.47
2016-10-29T00:53:10.426Z,86.52
2016-10-29T00:53:37.919Z,86.69
2016-10-29T00:53:59.643Z,86.70
2016-10-29T00:54:21.372Z,86.57
2016-10-29T00:54:45.085Z,86.47
2016-10-29T00:55:39.063Z,86.50
2016-10-29T00:56:01.804Z,86.55
2016-10-29T00:56:23.559Z,86.62
2016-10-29T00:56:50.053Z,86.51
2016-10-29T00:57:11.781Z,86.51
2016-10-29T00:57:34.499Z,86.46
2016-10-29T00:57:59.053Z,86.46
2016-10-29T00:58:20.785Z,86.48
2016-10-29T00:58:47.276Z,86.50
2016-10-29T00:59:09.003Z,86.55
2016-10-29T00:59:30.733Z,86.58
2016-10-29T00:59:57.295Z,86.50
2016-10-29T01:00:20.014Z,86.54
2016-10-29T01:00:42.739Z,86.49
2016-10-29T01:01:04.559Z,86.47
2016-10-29T01:01:27.298Z,86.42
2016-10-29T01:01:49.054Z,86.53
2016-10-29T01:02:10.771Z,86.57
2016-10-29T01:02:32.501Z,86.59
2016-10-29T01:02:54.223Z,86.55
2016-10-29T01:03:15.939Z,86.59
2016-10-29T01:03:37.672Z,86.48
2016-10-29T01:04:03.356Z,86.49
2016-10-29T01:04:26.085Z,86.58
2016-10-29T01:04:48.821Z,86.63
2016-10-29T01:05:10.538Z,86.54
2016-10-29T01:05:32.254Z,86.43
2016-10-29T01:05:54.970Z,86.42
2016-10-29T01:06:16.691Z,86.39
2016-10-29T01:06:38.408Z,86.32
2016-10-29T01:07:04.895Z,86.43
2016-10-29T01:07:26.621Z,86.44
2016-10-29T01:07:49.346Z,86.48
2016-10-29T01:08:11.066Z,86.43
2016-10-29T01:08:32.797Z,86.44
2016-10-29T01:08:54.529Z,86.45
2016-10-29T01:09:42.746Z,86.50
2016-10-29T01:10:04.475Z,86.56
2016-10-29T01:10:28.193Z,86.62
2016-10-29T01:10:50.916Z,86.65
2016-10-29T01:11:13.641Z,86.68
2016-10-29T01:11:35.364Z,86.73
2016-10-29T01:11:58.084Z,86.72
2016-10-29T01:12:19.802Z,86.78
2016-10-29T01:12:42.522Z,86.84
2016-10-29T01:13:04.239Z,86.83
2016-10-29T01:13:26.955Z,86.92
2016-10-29T01:13:48.675Z,87.03
2016-10-29T01:14:10.392Z,87.01
2016-10-29T01:14:32.189Z,87.06
2016-10-29T01:14:57.421Z,87.14
2016-10-29T01:15:20.136Z,87.10
2016-10-29T01:15:46.639Z,87.17
2016-10-29T01:16:08.360Z,87.24
2016-10-29T01:16:31.084Z,87.19
2016-10-29T01:16:52.887Z,87.21
2016-10-29T01:17:16.948Z,87.26
2016-10-29T01:17:39.542Z,87.26
2016-10-29T01:18:01.263Z,87.27
2016-10-29T01:18:22.984Z,87.15
2016-10-29T01:18:44.711Z,87.08
2016-10-29T01:19:06.433Z,87.23
2016-10-29T01:19:28.160Z,87.28
2016-10-29T01:19:49.879Z,87.36
2016-10-29T01:20:16.380Z,87.32
2016-10-29T01:20:38.101Z,87.34
2016-10-29T01:21:26.319Z,87.34
2016-10-29T01:21:57.591Z,87.25
2016-10-29T01:22:46.796Z,87.19
2016-10-29T01:23:08.537Z,87.21
2016-10-29T01:23:35.003Z,87.25
2016-10-29T01:23:56.733Z,87.33
2016-10-29T01:24:18.449Z,87.25
2016-10-29T01:24:40.167Z,87.23
2016-10-29T01:25:02.903Z,87.25
2016-10-29T01:25:24.640Z,87.26
2016-10-29T01:25:46.359Z,87.22
2016-10-29T01:26:09.153Z,87.15
2016-10-29T01:26:57.392Z,87.15
2016-10-29T01:27:19.110Z,87.16
2016-10-29T01:27:40.828Z,87.29
2016-10-29T01:28:02.548Z,87.38
2016-10-29T01:28:25.280Z,87.32
2016-10-29T01:28:47.020Z,87.35
2016-10-29T01:29:13.517Z,87.43
2016-10-29T01:29:37.229Z,87.41
2016-10-29T01:30:03.731Z,87.31
2016-10-29T01:30:25.463Z,87.37
2016-10-29T01:30:51.956Z,87.24
2016-10-29T01:31:13.678Z,87.32
2016-10-29T01:31:40.169Z,87.43
2016-10-29T01:32:01.899Z,87.34
2016-10-29T01:32:23.614Z,87.34
2016-10-29T01:32:45.329Z,87.36
2016-10-29T01:33:08.043Z,87.47
2016-10-29T01:33:29.760Z,87.51
2016-10-29T01:33:51.478Z,87.51
2016-10-29T01:34:14.194Z,87.54
2016-10-29T01:35:05.409Z,87.60
2016-10-29T01:35:27.127Z,87.61
2016-10-29T01:35:53.620Z,87.57
2016-10-29T01:36:16.349Z,87.52
2016-10-29T01:36:38.062Z,87.48
2016-10-29T01:36:59.781Z,87.54
2016-10-29T01:37:21.498Z,87.67
2016-10-29T01:37:43.220Z,87.65
2016-10-29T01:38:05.937Z,87.65
2016-10-29T01:38:27.655Z,87.66
2016-10-29T01:38:55.141Z,87.40
2016-10-29T01:39:21.629Z,87.46
2016-10-29T01:39:48.122Z,87.68
2016-10-29T01:40:09.841Z,87.66
2016-10-29T01:40:31.570Z,87.55
2016-10-29T01:40:53.295Z,87.42
2016-10-29T01:41:15.046Z,87.40
2016-10-29T01:41:37.747Z,87.38
2016-10-29T01:41:59.465Z,87.38
2016-10-29T01:42:22.185Z,87.42
2016-10-29T01:42:43.910Z,87.45
2016-10-29T01:43:05.647Z,87.60
2016-10-29T01:43:27.362Z,87.69
2016-10-29T01:43:49.076Z,87.57
2016-10-29T01:44:10.795Z,87.47
2016-10-29T01:44:32.506Z,87.39
2016-10-29T01:44:54.234Z,87.51
2016-10-29T01:45:16.973Z,87.54
2016-10-29T01:45:39.691Z,87.46
2016-10-29T01:46:01.426Z,87.43
2016-10-29T01:46:23.146Z,87.39
2016-10-29T01:46:44.871Z,87.34
2016-10-29T01:47:11.361Z,87.41
2016-10-29T01:47:33.094Z,87.40
2016-10-29T01:47:54.809Z,87.41
2016-10-29T01:48:16.532Z,87.41
2016-10-29T01:48:38.278Z,87.28
2016-10-29T01:49:00.987Z,87.16
2016-10-29T01:49:23.729Z,87.13
2016-10-29T01:49:45.439Z,87.15
2016-10-29T01:50:07.175Z,87.11
2016-10-29T01:50:33.653Z,87.09
2016-10-29T01:50:55.373Z,87.21
2016-10-29T01:51:17.090Z,87.40
2016-10-29T01:51:38.807Z,87.35
2016-10-29T01:52:06.342Z,87.43
2016-10-29T01:52:29.054Z,87.40
2016-10-29T01:52:50.774Z,87.32
2016-10-29T01:53:12.487Z,87.27
2016-10-29T01:53:34.202Z,87.30
2016-10-29T01:53:56.933Z,87.54
2016-10-29T01:54:45.160Z,87.56
2016-10-29T01:55:11.658Z,87.40
2016-10-29T01:55:33.386Z,87.42
2016-10-29T01:55:55.105Z,87.48
2016-10-29T01:56:16.818Z,87.55
2016-10-29T01:57:05.044Z,87.41
2016-10-29T01:57:27.757Z,87.40
2016-10-29T01:57:49.481Z,87.33
2016-10-29T01:58:11.199Z,87.40
2016-10-29T01:58:33.915Z,87.31
2016-10-29T01:58:55.631Z,87.32
2016-10-29T01:59:18.353Z,87.35
2016-10-29T01:59:40.073Z,87.33
2016-10-29T02:00:01.789Z,87.36
2016-10-29T02:00:25.503Z,87.44
2016-10-29T02:00:47.222Z,87.41
2016-10-29T02:01:09.057Z,87.33
2016-10-29T02:01:30.775Z,87.41
2016-10-29T02:01:53.489Z,87.48
2016-10-29T02:02:19.979Z,87.46
2016-10-29T02:02:43.715Z,87.32
2016-10-29T02:03:05.426Z,87.49
2016-10-29T02:03:27.145Z,87.55
2016-10-29T02:03:48.878Z,87.46
2016-10-29T02:04:10.600Z,87.56
2016-10-29T02:04:32.323Z,87.53
2016-10-29T02:04:54.043Z,87.38
2016-10-29T02:05:15.762Z,87.36
2016-10-29T02:05:42.251Z,87.32
2016-10-29T02:06:05.099Z,87.27
2016-10-29T02:06:26.816Z,87.35
2016-10-29T02:06:49.530Z,87.39
2016-10-29T02:07:11.250Z,87.36
2016-10-29T02:07:32.969Z,87.36
2016-10-29T02:07:54.710Z,87.34
2016-10-29T02:08:21.211Z,87.42
2016-10-29T02:08:42.943Z,87.41
2016-10-29T02:09:04.711Z,87.39
2016-10-29T02:09:27.525Z,87.25
2016-10-29T02:09:49.251Z,87.24
2016-10-29T02:10:10.967Z,87.19
2016-10-29T02:10:32.684Z,87.13
2016-10-29T02:10:55.408Z,87.19
2016-10-29T02:11:17.121Z,87.17
2016-10-29T02:11:39.838Z,87.18
2016-10-29T02:12:01.594Z,87.20
2016-10-29T02:12:23.315Z,87.21
2016-10-29T02:12:49.804Z,87.25
2016-10-29T02:13:11.600Z,87.27
2016-10-29T02:13:34.322Z,87.22
2016-10-29T02:13:56.038Z,87.28
2016-10-29T02:14:17.756Z,87.18
2016-10-29T02:14:39.478Z,87.17
2016-10-29T02:15:01.204Z,87.26
2016-10-29T02:15:22.930Z,87.15
2016-10-29T02:15:49.416Z,87.21
2016-10-29T02:16:11.192Z,87.31
2016-10-29T02:16:32.925Z,87.38
2016-10-29T02:16:54.641Z,87.33
2016-10-29T02:17:22.143Z,87.36
2016-10-29T02:17:43.864Z,87.36
2016-10-29T02:18:05.584Z,87.27
2016-10-29T02:18:27.303Z,87.31
2016-10-29T02:18:49.023Z,87.32
2016-10-29T02:19:10.789Z,87.35
2016-10-29T02:19:32.515Z,87.47
2016-10-29T02:19:54.230Z,87.40
2016-10-29T02:20:15.962Z,87.37
2016-10-29T02:20:37.682Z,87.46
2016-10-29T02:20:59.411Z,87.49
2016-10-29T02:21:21.135Z,87.51
2016-10-29T02:21:42.852Z,87.56
2016-10-29T02:22:04.572Z,87.51
2016-10-29T02:22:26.288Z,87.45
2016-10-29T02:22:48.028Z,87.53
2016-10-29T02:23:10.743Z,87.57
2016-10-29T02:23:32.462Z,87.58
2016-10-29T02:23:54.181Z,87.52
2016-10-29T02:24:15.906Z,87.50
2016-10-29T02:24:37.985Z,87.47
2016-10-29T02:24:59.703Z,87.37
2016-10-29T02:25:21.436Z,87.35
2016-10-29T02:26:09.637Z,87.26
2016-10-29T02:26:31.365Z,87.21
2016-10-29T02:26:53.094Z,87.23
2016-10-29T02:27:16.810Z,87.25
2016-10-29T02:27:38.540Z,87.42
2016-10-29T02:28:01.252Z,87.49
2016-10-29T02:28:22.974Z,87.39
2016-10-29T02:28:44.705Z,87.33
2016-10-29T02:29:06.428Z,87.33
2016-10-29T02:29:28.151Z,87.42
2016-10-29T02:29:49.877Z,87.38
2016-10-29T02:30:11.759Z,87.54
2016-10-29T02:30:33.486Z,87.56
2016-10-29T02:30:55.204Z,87.58
2016-10-29T02:31:16.926Z,87.60
2016-10-29T02:31:38.644Z,87.54
2016-10-29T02:32:00.366Z,87.57
2016-10-29T02:32:22.085Z,87.57
2016-10-29T02:32:43.809Z,87.57
2016-10-29T02:33:05.531Z,87.56
2016-10-29T02:33:27.271Z,87.55
2016-10-29T02:33:48.990Z,87.56
2016-10-29T02:34:10.708Z,87.69
2016-10-29T02:34:32.428Z,87.63
2016-10-29T02:34:55.146Z,87.64
2016-10-29T02:35:16.866Z,87.67
2016-10-29T02:35:38.610Z,87.76
2016-10-29T02:36:00.330Z,87.80
2016-10-29T02:36:22.061Z,87.83
2016-10-29T02:36:43.778Z,87.75
2016-10-29T02:37:05.638Z,87.67
2016-10-29T02:37:27.357Z,87.73
2016-10-29T02:37:49.123Z,87.72
2016-10-29T02:38:10.835Z,87.70
2016-10-29T02:38:32.557Z,87.71
2016-10-29T02:38:54.279Z,87.77
2016-10-29T02:39:16.005Z,87.72
2016-10-29T02:39:37.724Z,87.72
2016-10-29T02:40:00.433Z,87.71
2016-10-29T02:40:22.152Z,87.67
2016-10-29T02:40:43.884Z,87.79
2016-10-29T02:41:05.618Z,87.79
2016-10-29T02:41:27.341Z,87.78
2016-10-29T02:41:49.056Z,87.78
2016-10-29T02:42:10.782Z,87.89
2016-10-29T02:42:32.520Z,87.81
2016-10-29T02:42:54.247Z,87.79
2016-10-29T02:43:15.965Z,87.81
2016-10-29T02:43:37.705Z,87.75
2016-10-29T02:43:59.422Z,87.61
2016-10-29T02:44:21.150Z,87.59
2016-10-29T02:44:42.875Z,87.65
2016-10-29T02:45:04.594Z,87.69
2016-10-29T02:45:26.326Z,87.75
2016-10-29T02:45:48.040Z,87.79
2016-10-29T02:46:09.767Z,87.77
2016-10-29T02:46:31.482Z,87.77
2016-10-29T02:46:53.223Z,87.81
2016-10-29T02:47:14.953Z,87.77
2016-10-29T02:47:36.670Z,87.67
2016-10-29T02:48:03.160Z,87.76
2016-10-29T02:48:24.899Z,87.76
2016-10-29T02:48:46.624Z,87.88
2016-10-29T02:49:08.360Z,87.84
2016-10-29T02:49:31.088Z,87.86
2016-10-29T02:49:52.825Z,87.81
2016-10-29T02:50:15.533Z,87.75
2016-10-29T02:50:37.252Z,87.76
2016-10-29T02:50:58.971Z,87.74
2016-10-29T02:51:21.685Z,87.73
2016-10-29T02:51:43.406Z,87.74
2016-10-29T02:52:09.908Z,87.80
2016-10-29T02:52:31.626Z,87.89
2016-10-29T02:52:53.339Z,88.01
2016-10-29T02:53:17.951Z,87.90
2016-10-29T02:53:39.679Z,87.88
2016-10-29T02:54:06.197Z,87.81
2016-10-29T02:54:27.921Z,87.84
2016-10-29T02:54:49.645Z,87.87
2016-10-29T02:55:11.361Z,87.91
2016-10-29T02:55:33.099Z,88.00
2016-10-29T02:55:55.811Z,87.99
2016-10-29T02:56:17.533Z,88.04
2016-10-29T02:56:39.255Z,88.06
2016-10-29T02:57:00.990Z,88.08
2016-10-29T02:57:22.723Z,88.02
2016-10-29T02:57:44.443Z,87.93
2016-10-29T02:58:06.295Z,88.05
2016-10-29T02:58:28.011Z,88.02
2016-10-29T02:58:49.744Z,87.98
2016-10-29T02:59:12.467Z,87.96
2016-10-29T02:59:34.193Z,88.00
2016-10-29T02:59:55.923Z,88.01
2016-10-29T03:00:18.637Z,87.99
2016-10-29T03:00:40.362Z,87.99
2016-10-29T03:01:02.080Z,88.06
2016-10-29T03:01:23.805Z,88.16
2016-10-29T03:01:45.536Z,88.25
2016-10-29T03:02:07.257Z,88.26
2016-10-29T03:02:28.981Z,88.20
2016-10-29T03:02:50.714Z,88.17
2016-10-29T03:03:12.441Z,88.19
2016-10-29T03:03:34.163Z,88.14
2016-10-29T03:03:55.884Z,88.15
2016-10-29T03:04:17.612Z,88.15
2016-10-29T03:04:39.336Z,88.20
2016-10-29T03:05:01.064Z,88.32
2016-10-29T03:05:22.795Z,88.42
2016-10-29T03:05:49.271Z,88.47
2016-10-29T03:06:10.996Z,88.49
2016-10-29T03:06:32.716Z,88.45
2016-10-29T03:06:54.436Z,88.39
2016-10-29T03:07:16.161Z,88.42
2016-10-29T03:07:37.886Z,88.47
2016-10-29T03:07:59.629Z,88.56
2016-10-29T03:08:21.355Z,88.57
2016-10-29T03:08:43.080Z,88.55
2016-10-29T03:09:04.807Z,88.50
2016-10-29T03:09:26.515Z,88.45
2016-10-29T03:09:48.234Z,88.42
2016-10-29T03:10:09.953Z,88.46
2016-10-29T03:10:36.442Z,88.41
2016-10-29T03:10:58.183Z,88.48
2016-10-29T03:11:19.894Z,88.60
2016-10-29T03:11:41.639Z,88.66
2016-10-29T03:12:03.365Z,88.75
2016-10-29T03:12:25.093Z,88.75
2016-10-29T03:12:46.827Z,88.72
2016-10-29T03:13:08.545Z,88.76
2016-10-29T03:13:30.334Z,88.68
2016-10-29T03:13:52.069Z,88.60
2016-10-29T03:14:13.802Z,88.61
2016-10-29T03:14:35.532Z,88.68
2016-10-29T03:14:57.276Z,88.67
2016-10-29T03:15:18.997Z,88.76
2016-10-29T03:15:41.713Z,88.79
2016-10-29T03:16:04.430Z,88.81
2016-10-29T03:16:26.143Z,88.69
2016-10-29T03:16:47.861Z,88.71
2016-10-29T03:17:09.594Z,88.70
2016-10-29T03:17:31.355Z,88.68
2016-10-29T03:17:53.079Z,88.63
2016-10-29T03:18:14.794Z,88.71
2016-10-29T03:18:36.511Z,88.75
2016-10-29T03:18:58.233Z,88.74
2016-10-29T03:19:19.949Z,88.62
2016-10-29T03:19:46.437Z,88.52
2016-10-29T03:20:08.154Z,88.57
2016-10-29T03:20:29.881Z,88.59
2016-10-29T03:20:56.390Z,88.64
2016-10-29T03:21:18.113Z,88.64
2016-10-29T03:21:40.830Z,88.58
2016-10-29T03:22:05.217Z,88.49
2016-10-29T03:22:27.002Z,88.45
2016-10-29T03:22:48.738Z,88.50
2016-10-29T03:23:10.457Z,88.54
2016-10-29T03:23:36.966Z,88.54
2016-10-29T03:23:58.689Z,88.54
2016-10-29T03:24:25.175Z,88.63
2016-10-29T03:24:46.908Z,88.72
2016-10-29T03:25:09.621Z,88.81
2016-10-29T03:25:31.335Z,88.76
2016-10-29T03:25:53.058Z,88.79
2016-10-29T03:26:17.498Z,88.72
2016-10-29T03:26:39.209Z,88.73
2016-10-29T03:27:00.930Z,88.83
2016-10-29T03:27:22.643Z,88.97
2016-10-29T03:27:44.358Z,88.90
2016-10-29T03:28:06.076Z,88.91
2016-10-29T03:28:27.798Z,88.91
2016-10-29T03:28:52.256Z,88.92
2016-10-29T03:29:13.978Z,88.86
2016-10-29T03:29:35.743Z,88.82
2016-10-29T03:29:57.468Z,88.79
2016-10-29T03:30:19.201Z,88.90
2016-10-29T03:31:07.408Z,89.01
2016-10-29T03:31:33.905Z,88.98
2016-10-29T03:32:00.390Z,88.94
2016-10-29T03:32:22.119Z,88.93
2016-10-29T03:32:43.843Z,88.93
2016-10-29T03:33:05.569Z,88.93
2016-10-29T03:33:27.305Z,88.88
2016-10-29T03:33:50.012Z,88.81
2016-10-29T03:34:11.731Z,88.90
2016-10-29T03:34:33.455Z,88.95
2016-10-29T03:34:55.168Z,88.95
2016-10-29T03:35:16.894Z,89.13
2016-10-29T03:35:39.760Z,89.12
2016-10-29T03:36:01.475Z,89.07
2016-10-29T03:36:23.208Z,89.04
2016-10-29T03:36:44.921Z,89.15
2016-10-29T03:37:06.649Z,89.11
2016-10-29T03:37:31.358Z,89.16
2016-10-29T03:37:53.098Z,89.16
2016-10-29T03:38:14.814Z,89.11
2016-10-29T03:38:36.535Z,89.30
2016-10-29T03:38:58.258Z,89.36
2016-10-29T03:39:20.967Z,89.31
2016-10-29T03:39:42.687Z,89.18
2016-10-29T03:40:05.420Z,89.19
2016-10-29T03:40:27.147Z,89.16
2016-10-29T03:41:15.357Z,89.06
2016-10-29T03:41:37.070Z,89.06
2016-10-29T03:41:58.786Z,88.98
2016-10-29T03:42:23.233Z,89.13
2016-10-29T03:42:49.901Z,89.21
2016-10-29T03:43:11.626Z,89.31
2016-10-29T03:43:36.223Z,89.30
2016-10-29T03:43:57.942Z,89.25
2016-10-29T03:44:19.668Z,89.25
2016-10-29T03:44:41.436Z,89.29
2016-10-29T03:45:05.148Z,89.24
2016-10-29T03:45:26.883Z,89.18
2016-10-29T03:45:48.610Z,89.10
2016-10-29T03:46:10.333Z,89.08
2016-10-29T03:46:32.069Z,89.19
2016-10-29T03:46:53.790Z,89.35
2016-10-29T03:47:15.514Z,89.29
2016-10-29T03:47:39.783Z,89.46
2016-10-29T03:48:01.511Z,89.43
2016-10-29T03:48:23.225Z,89.48
2016-10-29T03:48:44.966Z,89.39
2016-10-29T03:49:06.686Z,89.29
2016-10-29T03:49:28.401Z,89.30
2016-10-29T03:49:50.121Z,89.25
2016-10-29T03:50:11.837Z,89.19
2016-10-29T03:50:33.561Z,89.17
2016-10-29T03:50:55.274Z,89.24
2016-10-29T03:51:16.986Z,89.23
2016-10-29T03:51:38.730Z,89.20
2016-10-29T03:52:00.451Z,89.16
2016-10-29T03:52:22.185Z,89.17
2016-10-29T03:52:43.905Z,89.15
2016-10-29T03:53:05.629Z,89.28
2016-10-29T03:53:27.348Z,89.37
2016-10-29T03:53:53.863Z,89.37
2016-10-29T03:54:46.837Z,89.51
2016-10-29T03:55:08.553Z,89.53
2016-10-29T03:55:35.046Z,89.56
2016-10-29T03:56:01.551Z,89.60
2016-10-29T03:56:28.041Z,89.48
2016-10-29T03:56:54.530Z,89.39
2016-10-29T03:57:16.253Z,89.52
2016-10-29T03:57:42.746Z,89.52
2016-10-29T03:58:05.463Z,89.59
2016-10-29T03:58:27.201Z,89.57
2016-10-29T03:58:48.916Z,89.46
2016-10-29T03:59:11.647Z,89.42
2016-10-29T03:59:36.258Z,89.44
2016-10-29T03:59:57.980Z,89.49
2016-10-29T04:00:19.696Z,89.53
2016-10-29T04:00:46.193Z,89.48
2016-10-29T04:01:07.965Z,89.43
2016-10-29T04:01:34.453Z,89.42
2016-10-29T04:01:56.167Z,89.49
2016-10-29T04:02:22.655Z,89.46
2016-10-29T04:02:44.370Z,89.36
2016-10-29T04:03:06.090Z,89.34
2016-10-29T04:04:25.553Z,89.53
2016-10-29T04:04:48.290Z,89.57
2016-10-29T04:05:11.006Z,89.66
2016-10-29T04:05:32.723Z,89.55
2016-10-29T04:05:54.444Z,89.43
2016-10-29T04:06:19.100Z,89.44
2016-10-29T04:06:40.828Z,89.63
2016-10-29T04:07:05.170Z,89.53
2016-10-29T04:07:26.894Z,89.61
2016-10-29T04:07:48.635Z,89.53
2016-10-29T04:08:15.120Z,89.60
2016-10-29T04:08:36.841Z,89.70
2016-10-29T04:08:58.580Z,89.71
2016-10-29T04:09:20.295Z,89.67
2016-10-29T04:09:43.011Z,89.55
2016-10-29T04:10:07.425Z,89.50
2016-10-29T04:10:29.231Z,89.42
2016-10-29T04:10:50.964Z,89.42
2016-10-29T04:11:12.684Z,89.48
2016-10-29T04:11:34.400Z,89.48
2016-10-29T04:11:56.113Z,89.53
2016-10-29T04:12:17.831Z,89.58
2016-10-29T04:13:08.627Z,89.59
2016-10-29T04:13:32.906Z,89.70
2016-10-29T04:13:54.615Z,89.69
2016-10-29T04:14:16.348Z,89.74
2016-10-29T04:14:38.072Z,89.71
2016-10-29T04:15:07.249Z,89.66
2016-10-29T04:15:31.534Z,89.74
2016-10-29T04:15:58.023Z,89.90
2016-10-29T04:16:19.748Z,89.76
2016-10-29T04:16:44.045Z,89.82
2016-10-29T04:17:05.764Z,89.89
2016-10-29T04:17:53.966Z,89.73
2016-10-29T04:18:15.696Z,89.74
2016-10-29T04:18:37.419Z,89.68
2016-10-29T04:18:59.137Z,89.68
2016-10-29T04:19:20.861Z,89.61
2016-10-29T04:19:43.576Z,89.61
2016-10-29T04:20:05.296Z,89.54
2016-10-29T04:20:27.017Z,89.54
2016-10-29T04:21:15.224Z,89.32
2016-10-29T04:21:36.959Z,89.31
2016-10-29T04:21:58.679Z,89.32
2016-10-29T04:22:21.396Z,89.37
2016-10-29T04:22:43.128Z,89.46
2016-10-29T04:23:04.846Z,89.55
2016-10-29T04:23:29.510Z,89.63
2016-10-29T04:23:51.223Z,89.60
2016-10-29T04:24:12.984Z,89.76
2016-10-29T04:24:34.699Z,89.68
2016-10-29T04:24:56.420Z,89.77
2016-10-29T04:25:18.173Z,89.65
2016-10-29T04:25:39.893Z,89.69
2016-10-29T04:26:06.381Z,89.69
2016-10-29T04:26:28.104Z,89.68
2016-10-29T04:26:49.818Z,89.72
2016-10-29T04:27:11.625Z,89.61
2016-10-29T04:27:38.111Z,89.67
2016-10-29T04:28:04.735Z,89.65
2016-10-29T04:28:31.231Z,89.76
2016-10-29T04:28:53.002Z,89.76
2016-10-29T04:29:14.863Z,89.75
2016-10-29T04:29:37.579Z,89.72
2016-10-29T04:29:59.301Z,89.84
2016-10-29T04:30:21.019Z,89.79
2016-10-29T04:30:42.740Z,89.74
2016-10-29T04:31:07.274Z,89.68
2016-10-29T04:31:28.993Z,89.70
2016-10-29T04:31:50.714Z,89.84
2016-10-29T04:32:12.433Z,89.91
2016-10-29T04:32:35.149Z,89.90
2016-10-29T04:32:56.870Z,90.01
2016-10-29T04:33:19.617Z,89.92
2016-10-29T04:33:41.337Z,89.87
2016-10-29T04:34:05.894Z,89.92
2016-10-29T04:34:28.631Z,89.90
2016-10-29T04:34:50.346Z,89.93
2016-10-29T04:35:12.063Z,89.95
2016-10-29T04:35:38.573Z,89.88
2016-10-29T04:36:06.070Z,89.91
2016-10-29T04:37:00.055Z,89.94
2016-10-29T04:37:26.548Z,89.96
2016-10-29T04:37:48.316Z,90.07
2016-10-29T04:38:10.009Z,90.16
2016-10-29T04:38:35.626Z,90.27
2016-10-29T04:38:57.365Z,90.37
2016-10-29T04:39:19.088Z,90.44
2016-10-29T04:39:40.816Z,90.42
2016-10-29T04:40:31.884Z,90.48
2016-10-29T04:40:53.598Z,90.34
2016-10-29T04:41:17.976Z,90.37
2016-10-29T04:42:16.274Z,90.31
2016-10-29T04:42:37.993Z,90.34
2016-10-29T04:43:33.608Z,90.40
2016-10-29T04:44:26.626Z,90.45
2016-10-29T04:44:48.350Z,90.47
2016-10-29T04:45:10.058Z,90.40
2016-10-29T04:45:32.773Z,90.39
2016-10-29T04:45:54.487Z,90.35
2016-10-29T04:46:45.661Z,90.57
2016-10-29T04:47:13.157Z,90.61
2016-10-29T04:47:39.647Z,90.75
2016-10-29T04:48:01.436Z,90.72
2016-10-29T04:48:28.925Z,90.60
2016-10-29T04:48:51.636Z,90.67
2016-10-29T04:49:13.372Z,90.67
2016-10-29T04:49:36.087Z,90.65
2016-10-29T04:49:57.804Z,90.67
2016-10-29T04:50:26.795Z,90.75
2016-10-29T04:50:49.511Z,90.60
2016-10-29T04:51:11.235Z,90.58
2016-10-29T04:51:34.056Z,90.55
2016-10-29T04:51:55.774Z,90.45
2016-10-29T04:52:18.486Z,90.39
2016-10-29T04:52:40.208Z,90.29
2016-10-29T04:53:03.939Z,90.26
2016-10-29T04:53:25.662Z,90.30
2016-10-29T04:53:52.148Z,90.53
2016-10-29T04:54:13.873Z,90.59
2016-10-29T04:54:43.304Z,90.66
2016-10-29T04:55:06.015Z,90.59
2016-10-29T04:55:27.737Z,90.55
2016-10-29T04:55:50.453Z,90.42
2016-10-29T04:56:12.230Z,90.37
2016-10-29T04:56:34.944Z,90.30
2016-10-29T04:57:01.445Z,90.31
2016-10-29T04:57:24.285Z,90.23
2016-10-29T04:57:50.777Z,90.21
2016-10-29T04:58:12.495Z,90.22
2016-10-29T04:58:34.226Z,90.29
2016-10-29T04:59:00.710Z,90.42
2016-10-29T04:59:22.437Z,90.48
2016-10-29T04:59:45.246Z,90.56
2016-10-29T05:00:06.973Z,90.46
2016-10-29T05:00:28.685Z,90.50
2016-10-29T05:00:50.417Z,90.60
2016-10-29T05:01:12.141Z,90.48
2016-10-29T05:01:33.876Z,90.51
2016-10-29T05:01:55.599Z,90.45
2016-10-29T05:02:17.316Z,90.54
2016-10-29T05:02:39.044Z,90.55
2016-10-29T05:03:00.768Z,90.57
2016-10-29T05:03:27.251Z,90.72
2016-10-29T05:03:48.985Z,90.76
2016-10-29T05:04:10.686Z,90.79
2016-10-29T05:04:37.447Z,90.99
2016-10-29T05:04:59.064Z,91.12
2016-10-29T05:05:20.783Z,91.11
2016-10-29T05:05:42.505Z,91.00
2016-10-29T05:06:05.223Z,90.94
2016-10-29T05:06:26.940Z,91.07
2016-10-29T05:06:48.661Z,91.00
2016-10-29T05:07:10.379Z,90.91
2016-10-29T05:07:32.092Z,90.82
2016-10-29T05:07:53.809Z,90.73